Time;durP1;ratioP1;P1;durP2;ratioP2;P2;SDS_P1;SDS_P2;PMS_P1;PMS_P2;Temp;Humidity;BMP_temperature;BMP_pressure;BME280_temperature;BME280_humidity;BME280_pressure;Samples;Min_cycle;Max_cycle;Signal;HPM_P1;HPM_P2
2023/08/08 00:02:16;;;;;;;8.80;3.15;;;13.40;99.90;;;;;;5037069;28;252404;-67
2023/08/08 00:04:42;;;;;;;9.73;3.25;;;13.40;99.90;;;;;;5076642;28;20064;-66
2023/08/08 00:07:09;;;;;;;12.27;3.35;;;13.40;99.90;;;;;;5053011;28;270630;-67
2023/08/08 00:09:35;;;;;;;9.85;3.33;;;13.40;99.90;;;;;;5075712;28;20056;-68
2023/08/08 00:12:01;;;;;;;11.30;3.10;;;13.40;99.90;;;;;;5048240;28;270336;-67
2023/08/08 00:14:27;;;;;;;10.15;3.13;;;13.40;99.90;;;;;;5079944;28;20419;-66
2023/08/08 00:16:53;;;;;;;9.98;2.95;;;13.40;99.90;;;;;;5039800;28;268019;-67
2023/08/08 00:19:19;;;;;;;9.32;2.97;;;13.40;99.90;;;;;;5072084;28;20056;-67
2023/08/08 00:21:45;;;;;;;11.98;3.00;;;13.40;99.90;;;;;;5048487;28;264460;-68
2023/08/08 00:24:11;;;;;;;9.25;3.03;;;13.40;99.90;;;;;;5074120;28;20036;-68
2023/08/08 00:26:37;;;;;;;11.52;3.65;;;13.40;99.90;;;;;;5048727;28;259578;-67
2023/08/08 00:29:03;;;;;;;8.32;3.10;;;13.40;99.90;;;;;;5078364;28;20041;-67
2023/08/08 00:31:29;;;;;;;10.57;3.30;;;13.30;99.90;;;;;;5067507;28;20049;-68
2023/08/08 00:33:55;;;;;;;10.07;3.13;;;13.40;99.90;;;;;;5063173;28;277338;-67
2023/08/08 00:36:22;;;;;;;9.85;2.95;;;13.40;99.90;;;;;;5062326;28;20048;-67
2023/08/08 00:38:48;;;;;;;9.45;3.20;;;13.40;99.90;;;;;;5052756;28;264198;-67
2023/08/08 00:41:15;;;;;;;10.63;3.50;;;13.40;99.90;;;;;;5067317;28;20059;-67
2023/08/08 00:43:43;;;;;;;9.80;2.88;;;13.40;99.90;;;;;;5061903;28;268563;-67
2023/08/08 00:46:10;;;;;;;11.80;3.65;;;13.40;99.90;;;;;;5064098;28;20148;-67
2023/08/08 00:48:36;;;;;;;11.65;3.40;;;13.40;99.90;;;;;;5063725;28;267597;-67
2023/08/08 00:51:02;;;;;;;14.02;3.83;;;13.40;99.90;;;;;;5066103;28;20057;-67
2023/08/08 00:53:31;;;;;;;9.98;3.13;;;13.30;99.90;;;;;;5021447;28;219721;-67
2023/08/08 00:55:59;;;;;;;10.30;3.55;;;13.30;99.90;;;;;;5045259;28;20060;-67
2023/08/08 00:58:25;;;;;;;11.00;3.78;;;13.30;99.90;;;;;;5041450;28;266292;-68
2023/08/08 01:00:54;;;;;;;11.00;4.00;;;13.30;99.90;;;;;;5061886;28;20053;-67
2023/08/08 01:03:21;;;;;;;14.88;3.97;;;13.30;99.90;;;;;;5049965;28;56738;-66
2023/08/08 01:06:05;;;;;;;13.23;3.80;;;13.30;99.90;;;;;;5067000;28;20430;-67
2023/08/08 01:08:39;;;;;;;9.65;3.97;;;13.30;99.90;;;;;;5058635;28;255310;-66
2023/08/08 01:11:05;;;;;;;9.23;3.80;;;13.30;99.90;;;;;;5070085;28;20063;-67
2023/08/08 01:13:32;;;;;;;11.30;4.22;;;13.20;99.90;;;;;;5066371;28;275942;-68
2023/08/08 01:15:59;;;;;;;13.27;4.30;;;13.20;99.90;;;;;;5069085;28;20052;-67
2023/08/08 01:18:26;;;;;;;9.43;4.05;;;13.20;99.90;;;;;;5065557;28;261172;-66
2023/08/08 01:20:53;;;;;;;11.13;4.50;;;13.20;99.90;;;;;;5068900;28;20056;-67
2023/08/08 01:23:29;;;;;;;14.85;4.57;;;13.20;99.90;;;;;;5056937;28;276256;-66
2023/08/08 01:25:56;;;;;;;9.23;3.75;;;13.20;99.90;;;;;;5070106;28;20427;-66
2023/08/08 01:28:23;;;;;;;9.95;3.83;;;13.10;99.90;;;;;;5056007;28;272092;-66
2023/08/08 01:30:50;;;;;;;13.98;4.60;;;13.10;99.90;;;;;;5067501;28;20056;-67
2023/08/08 01:33:16;;;;;;;10.57;4.10;;;13.10;99.90;;;;;;5061079;28;274636;-67
2023/08/08 01:35:46;;;;;;;10.27;4.20;;;13.10;99.90;;;;;;5067020;28;20048;-66
2023/08/08 01:38:20;;;;;;;12.07;4.13;;;13.00;99.90;;;;;;5044029;28;258287;-66
2023/08/08 01:40:46;;;;;;;10.20;4.20;;;13.00;99.90;;;;;;5066656;28;20059;-68
2023/08/08 01:43:15;;;;;;;13.52;4.25;;;13.00;99.90;;;;;;5064864;28;258234;-66
2023/08/08 01:45:43;;;;;;;10.98;4.53;;;13.00;99.90;;;;;;5065785;28;20049;-67
2023/08/08 01:48:10;;;;;;;10.45;3.70;;;13.00;99.90;;;;;;5055720;28;256996;-67
2023/08/08 01:50:37;;;;;;;12.88;4.30;;;13.00;99.90;;;;;;5072786;28;20053;-68
2023/08/08 01:53:03;;;;;;;14.10;4.53;;;13.00;99.90;;;;;;5039364;28;260342;-66
2023/08/08 01:55:31;;;;;;;12.07;4.47;;;13.00;99.90;;;;;;5069876;28;20498;-67
2023/08/08 01:57:57;;;;;;;12.27;4.68;;;13.00;99.90;;;;;;5050451;28;226415;-66
2023/08/08 02:00:23;;;;;;;9.95;4.28;;;13.00;99.90;;;;;;5072336;28;20056;-66
2023/08/08 02:02:49;;;;;;;11.57;4.55;;;13.00;99.90;;;;;;5047254;28;266587;-67
2023/08/08 02:05:15;;;;;;;10.23;4.28;;;13.00;99.90;;;;;;5074555;28;20067;-67
2023/08/08 02:07:41;;;;;;;12.13;4.18;;;13.00;99.90;;;;;;5055555;28;271015;-67
2023/08/08 02:10:07;;;;;;;13.82;4.43;;;13.00;99.90;;;;;;5066707;28;20522;-66
2023/08/08 02:12:34;;;;;;;12.63;4.40;;;13.00;99.90;;;;;;5053721;28;258647;-67
2023/08/08 02:15:00;;;;;;;12.07;4.20;;;13.00;99.90;;;;;;5067903;28;20600;-66
2023/08/08 02:17:26;;;;;;;15.60;4.40;;;13.00;99.90;;;;;;5050668;28;261340;-67
2023/08/08 02:19:52;;;;;;;11.27;4.60;;;13.00;99.90;;;;;;5062846;28;20048;-67
2023/08/08 02:22:19;;;;;;;12.25;4.47;;;13.00;99.90;;;;;;5052922;28;253367;-67
2023/08/08 02:24:45;;;;;;;12.95;4.32;;;13.00;99.90;;;;;;5071078;28;20052;-67
2023/08/08 02:27:12;;;;;;;13.88;4.93;;;13.00;99.90;;;;;;5056097;28;255877;-67
2023/08/08 02:29:38;;;;;;;13.02;4.32;;;13.00;99.90;;;;;;5074189;28;20126;-67
2023/08/08 02:32:04;;;;;;;10.20;4.25;;;13.00;99.90;;;;;;5053959;28;254709;-68
2023/08/08 02:34:30;;;;;;;11.90;4.50;;;13.00;99.90;;;;;;5078163;28;20052;-67
2023/08/08 02:36:56;;;;;;;14.02;4.47;;;13.00;99.90;;;;;;5038529;28;276645;-68
2023/08/08 02:39:23;;;;;;;13.45;4.60;;;13.00;99.90;;;;;;5035747;28;20052;-68
2023/08/08 02:41:49;;;;;;;13.43;4.50;;;13.00;99.90;;;;;;5031975;28;274490;-68
2023/08/08 02:44:15;;;;;;;16.50;4.68;;;13.00;99.90;;;;;;5062357;28;20068;-68
2023/08/08 02:46:41;;;;;;;14.27;4.72;;;13.00;99.90;;;;;;5027587;28;265348;-67
2023/08/08 02:49:07;;;;;;;17.23;4.80;;;13.00;99.90;;;;;;5071045;28;20556;-68
2023/08/08 02:51:33;;;;;;;11.75;4.82;;;13.00;99.90;;;;;;5068380;28;20052;-68
2023/08/08 02:53:59;;;;;;;13.05;4.97;;;13.00;99.90;;;;;;5033233;28;83558;-67
2023/08/08 02:56:25;;;;;;;12.07;4.55;;;13.00;99.90;;;;;;5064290;28;20053;-67
2023/08/08 02:58:51;;;;;;;15.82;4.60;;;13.00;99.90;;;;;;5041353;28;267798;-67
2023/08/08 03:01:18;;;;;;;14.93;4.57;;;13.00;99.90;;;;;;5039187;28;20051;-66
2023/08/08 03:03:44;;;;;;;13.15;4.32;;;13.00;99.90;;;;;;5059645;28;261923;-67
2023/08/08 03:06:10;;;;;;;11.15;4.78;;;13.00;99.90;;;;;;5068075;28;20059;-66
2023/08/08 03:08:36;;;;;;;16.25;4.93;;;12.90;99.90;;;;;;5055045;28;276194;-66
2023/08/08 03:11:02;;;;;;;9.40;4.13;;;13.00;99.90;;;;;;5065554;28;20059;-66
2023/08/08 03:13:28;;;;;;;13.90;4.20;;;13.00;99.90;;;;;;5061272;28;271874;-67
2023/08/08 03:15:55;;;;;;;11.13;4.55;;;12.90;99.90;;;;;;5067417;28;20060;-67
2023/08/08 03:18:22;;;;;;;12.30;4.65;;;12.90;99.90;;;;;;5044699;28;266936;-67
2023/08/08 03:20:49;;;;;;;13.50;4.40;;;12.90;99.90;;;;;;5066154;28;20071;-67
2023/08/08 03:23:15;;;;;;;11.27;4.40;;;12.90;99.90;;;;;;5053950;28;268288;-67
2023/08/08 03:25:41;;;;;;;12.52;4.18;;;12.90;99.90;;;;;;5062666;28;20627;-66
2023/08/08 03:28:07;;;;;;;14.02;4.18;;;13.00;99.90;;;;;;5052443;28;277338;-67
2023/08/08 03:30:35;;;;;;;13.48;4.22;;;13.00;99.90;;;;;;5065992;28;20044;-67
2023/08/08 03:33:01;;;;;;;12.95;4.10;;;13.00;99.90;;;;;;5055071;28;268133;-66
2023/08/08 03:35:27;;;;;;;13.05;4.10;;;13.00;99.90;;;;;;5069543;28;20052;-66
2023/08/08 03:37:53;;;;;;;11.48;3.60;;;13.00;99.90;;;;;;5051132;28;270688;-66
2023/08/08 03:40:20;;;;;;;10.68;3.47;;;13.00;99.90;;;;;;5067241;28;20044;-66
2023/08/08 03:42:46;;;;;;;11.13;3.97;;;13.00;99.90;;;;;;5058574;28;259708;-67
2023/08/08 03:45:12;;;;;;;11.73;3.70;;;13.00;99.90;;;;;;5060246;28;20511;-67
2023/08/08 03:47:38;;;;;;;11.43;3.53;;;12.90;99.90;;;;;;5047945;28;117692;-67
2023/08/08 03:50:07;;;;;;;12.15;3.35;;;12.90;99.90;;;;;;5069926;28;20044;-67
2023/08/08 03:52:35;;;;;;;11.13;3.63;;;12.90;99.90;;;;;;5027613;28;256074;-67
2023/08/08 03:55:01;;;;;;;12.57;3.60;;;12.90;99.90;;;;;;5066260;28;20426;-67
2023/08/08 03:57:28;;;;;;;14.77;3.60;;;12.80;99.90;;;;;;5047262;28;271214;-67
2023/08/08 03:59:54;;;;;;;11.38;3.47;;;12.80;99.90;;;;;;5047101;28;20040;-67
2023/08/08 04:02:20;;;;;;;15.52;3.42;;;12.80;99.90;;;;;;5051553;28;256098;-67
2023/08/08 04:04:46;;;;;;;11.73;3.40;;;12.90;99.90;;;;;;5075145;28;20299;-67
2023/08/08 04:07:12;;;;;;;14.55;3.50;;;12.90;99.90;;;;;;5046628;28;257079;-67
2023/08/08 04:09:38;;;;;;;12.40;3.17;;;12.90;99.90;;;;;;5062612;28;20392;-67
2023/08/08 04:12:04;;;;;;;13.88;3.45;;;12.80;99.90;;;;;;5051159;28;264321;-68
2023/08/08 04:14:30;;;;;;;10.48;3.30;;;12.80;99.90;;;;;;5069021;28;20052;-67
2023/08/08 04:16:56;;;;;;;10.25;3.20;;;12.80;99.90;;;;;;5050264;28;268656;-67
2023/08/08 04:19:23;;;;;;;13.75;3.15;;;12.80;99.90;;;;;;5067715;28;20063;-68
2023/08/08 04:21:49;;;;;;;9.82;2.95;;;12.80;99.90;;;;;;5050302;28;268881;-69
2023/08/08 04:24:15;;;;;;;14.35;2.92;;;12.80;99.90;;;;;;5065512;28;20087;-68
2023/08/08 04:26:41;;;;;;;12.52;3.42;;;12.80;99.90;;;;;;5045270;28;276531;-67
2023/08/08 04:29:07;;;;;;;11.05;2.88;;;12.90;99.90;;;;;;5067627;28;20053;-67
2023/08/08 04:31:33;;;;;;;9.15;2.78;;;12.90;99.90;;;;;;5067634;28;20048;-68
2023/08/08 04:34:00;;;;;;;11.90;3.10;;;13.00;99.90;;;;;;5058094;28;20426;-69
2023/08/08 04:36:27;;;;;;;12.18;2.83;;;13.00;99.90;;;;;;5061670;28;20052;-68
2023/08/08 04:38:53;;;;;;;12.98;2.90;;;13.00;99.90;;;;;;5059696;28;271027;-68
2023/08/08 04:41:20;;;;;;;16.50;2.92;;;13.10;99.90;;;;;;5071954;28;20052;-68
2023/08/08 04:43:46;;;;;;;11.85;2.50;;;13.10;99.90;;;;;;5062376;28;268784;-68
2023/08/08 04:46:12;;;;;;;10.40;2.40;;;13.10;99.90;;;;;;5067545;28;20421;-68
2023/08/08 04:48:38;;;;;;;14.68;2.60;;;13.10;99.90;;;;;;5041734;28;20044;-68
2023/08/08 04:51:05;;;;;;;13.07;2.42;;;13.10;99.90;;;;;;5051341;28;20071;-68
2023/08/08 04:53:31;;;;;;;12.65;2.38;;;13.00;99.90;;;;;;5040866;28;267966;-69
2023/08/08 04:55:58;;;;;;;11.93;2.38;;;13.00;99.90;;;;;;5066167;28;20051;-68
2023/08/08 04:58:24;;;;;;;11.70;2.50;;;13.00;99.90;;;;;;5057068;28;269213;-68
2023/08/08 05:00:50;;;;;;;12.00;2.38;;;13.00;99.90;;;;;;5065605;28;20056;-69
2023/08/08 05:03:17;;;;;;;15.88;2.47;;;13.10;99.90;;;;;;5056243;28;266595;-68
2023/08/08 05:05:46;;;;;;;11.57;2.38;;;13.10;99.90;;;;;;5072614;28;20071;-68
2023/08/08 05:08:13;;;;;;;13.50;2.17;;;13.10;99.90;;;;;;5058865;28;257758;-68
2023/08/08 05:10:39;;;;;;;10.98;2.35;;;13.20;99.90;;;;;;5068442;28;20060;-68
2023/08/08 05:13:06;;;;;;;11.38;2.47;;;13.30;99.90;;;;;;5050231;28;248658;-68
2023/08/08 05:15:32;;;;;;;11.68;2.00;;;13.30;99.90;;;;;;5073534;28;20047;-68
2023/08/08 05:17:59;;;;;;;11.10;2.20;;;13.50;99.90;;;;;;5055470;28;254846;-68
2023/08/08 05:20:25;;;;;;;8.18;1.88;;;13.60;99.90;;;;;;5068076;28;20060;-68
2023/08/08 05:22:51;;;;;;;14.05;2.35;;;13.70;99.90;;;;;;5059866;28;274125;-68
2023/08/08 05:25:17;;;;;;;9.30;1.77;;;13.80;99.90;;;;;;5075314;28;20052;-67
2023/08/08 05:27:44;;;;;;;9.35;1.80;;;14.00;99.90;;;;;;5055556;28;259526;-68
2023/08/08 05:30:10;;;;;;;13.35;1.92;;;14.20;99.90;;;;;;5075994;28;20059;-67
2023/08/08 05:32:36;;;;;;;8.32;1.63;;;14.40;99.90;;;;;;5057680;28;272209;-68
2023/08/08 05:35:04;;;;;;;8.00;1.42;;;14.80;99.90;;;;;;5071521;28;20048;-68
2023/08/08 05:37:30;;;;;;;10.15;2.00;;;15.10;99.90;;;;;;5052647;28;265999;-67
2023/08/08 05:39:56;;;;;;;14.43;2.13;;;15.30;99.90;;;;;;5075294;28;20052;-67
2023/08/08 05:42:22;;;;;;;12.23;2.25;;;15.50;99.90;;;;;;5056084;28;268241;-67
2023/08/08 05:44:48;;;;;;;12.13;2.00;;;15.50;99.90;;;;;;5079057;28;20513;-68
2023/08/08 05:47:14;;;;;;;9.60;1.58;;;15.70;99.90;;;;;;5049991;28;270579;-68
2023/08/08 05:49:43;;;;;;;9.50;1.52;;;15.80;99.90;;;;;;5077892;28;20055;-67
2023/08/08 05:52:10;;;;;;;9.75;1.80;;;15.90;99.90;;;;;;5039054;28;253096;-67
2023/08/08 05:54:36;;;;;;;8.35;1.55;;;16.10;99.90;;;;;;5058773;28;20044;-68
2023/08/08 05:57:03;;;;;;;10.18;1.63;;;16.20;99.90;;;;;;5052343;28;252336;-68
2023/08/08 05:59:29;;;;;;;13.23;1.80;;;16.30;99.90;;;;;;5074953;28;20055;-68
2023/08/08 06:01:55;;;;;;;9.63;1.65;;;16.40;99.90;;;;;;5043833;28;270047;-68
2023/08/08 06:04:21;;;;;;;8.85;1.55;;;16.60;99.90;;;;;;5079508;28;20048;-67
2023/08/08 06:06:48;;;;;;;10.30;1.75;;;16.60;99.90;;;;;;5050891;28;260231;-68
2023/08/08 06:09:15;;;;;;;10.15;1.70;;;16.70;99.90;;;;;;5074381;28;20052;-68
2023/08/08 06:11:41;;;;;;;12.20;1.65;;;16.80;99.90;;;;;;5051682;28;253525;-68
2023/08/08 06:14:07;;;;;;;6.95;1.55;;;16.90;99.90;;;;;;5081094;28;20606;-67
2023/08/08 06:16:33;;;;;;;8.30;1.40;;;16.90;99.90;;;;;;5067154;28;20044;-68
2023/08/08 06:19:00;;;;;;;8.50;1.70;;;17.00;99.90;;;;;;5047514;28;20049;-66
2023/08/08 06:21:26;;;;;;;10.10;1.65;;;17.00;99.90;;;;;;5069973;28;20040;-67
2023/08/08 06:23:54;;;;;;;9.70;1.67;;;17.00;99.90;;;;;;5053551;28;274846;-67
2023/08/08 06:26:21;;;;;;;9.07;1.50;;;17.00;99.90;;;;;;5066832;28;20060;-67
2023/08/08 06:28:47;;;;;;;9.55;1.60;;;17.00;99.90;;;;;;5063266;28;263553;-67
2023/08/08 06:31:14;;;;;;;10.13;1.63;;;17.00;99.90;;;;;;5067066;28;20057;-67
2023/08/08 06:33:40;;;;;;;8.43;1.35;;;17.20;99.90;;;;;;5060592;28;275528;-67
2023/08/08 06:36:07;;;;;;;9.73;1.52;;;17.30;99.90;;;;;;5065550;28;20064;-67
2023/08/08 06:38:33;;;;;;;9.88;1.50;;;17.40;99.90;;;;;;5066087;28;273134;-67
2023/08/08 06:41:00;;;;;;;10.93;1.70;;;17.60;99.90;;;;;;5066839;28;20049;-67
2023/08/08 06:43:26;;;;;;;9.20;1.67;;;17.60;99.90;;;;;;5062507;28;272033;-68
2023/08/08 06:45:52;;;;;;;9.80;1.63;;;17.60;99.90;;;;;;5057998;28;20403;-68
2023/08/08 06:48:18;;;;;;;10.38;1.35;;;17.80;99.90;;;;;;5051746;28;275682;-67
2023/08/08 06:50:45;;;;;;;11.20;1.50;;;17.90;99.90;;;;;;5071051;28;20059;-67
2023/08/08 06:53:11;;;;;;;8.88;1.48;;;17.90;99.90;;;;;;5036586;28;257296;-68
2023/08/08 06:55:37;;;;;;;10.02;1.48;;;17.90;99.90;;;;;;5061596;28;20056;-68
2023/08/08 06:58:03;;;;;;;6.82;1.30;;;17.90;99.90;;;;;;5053462;28;267100;-68
2023/08/08 07:00:29;;;;;;;9.25;1.63;;;18.00;99.90;;;;;;5071839;28;20055;-67
2023/08/08 07:02:55;;;;;;;10.48;1.42;;;17.90;99.90;;;;;;5052263;28;262361;-67
2023/08/08 07:05:25;;;;;;;9.20;1.38;;;18.10;99.90;;;;;;5072700;28;20514;-68
2023/08/08 07:07:52;;;;;;;10.27;1.52;;;17.90;99.90;;;;;;5052849;28;272260;-67
2023/08/08 07:10:19;;;;;;;8.63;1.48;;;18.00;99.90;;;;;;5064255;28;20036;-68
2023/08/08 07:12:45;;;;;;;9.13;1.23;;;18.20;99.90;;;;;;5052912;28;275728;-67
2023/08/08 07:15:11;;;;;;;6.90;1.38;;;18.10;99.90;;;;;;5065209;28;20060;-67
2023/08/08 07:17:38;;;;;;;8.15;1.20;;;18.20;99.90;;;;;;5051323;28;274769;-67
2023/08/08 07:20:05;;;;;;;8.07;1.20;;;18.20;99.90;;;;;;5062875;28;20056;-68
2023/08/08 07:22:32;;;;;;;7.18;1.17;;;18.20;99.90;;;;;;5047404;28;252890;-68
2023/08/08 07:24:59;;;;;;;10.98;2.08;;;18.50;99.90;;;;;;5072641;28;20521;-68
2023/08/08 07:27:27;;;;;;;7.10;1.17;;;18.70;99.90;;;;;;5057131;28;257276;-67
2023/08/08 07:29:53;;;;;;;10.00;1.50;;;18.40;99.90;;;;;;5065343;28;20127;-69
2023/08/08 07:32:19;;;;;;;11.32;1.40;;;18.10;99.90;;;;;;5052204;28;274536;-67
2023/08/08 07:34:45;;;;;;;11.57;1.40;;;18.00;99.90;;;;;;5074227;28;20059;-67
2023/08/08 07:37:11;;;;;;;6.20;1.15;;;17.70;99.90;;;;;;5049951;28;262490;-67
2023/08/08 07:39:37;;;;;;;9.23;1.13;;;17.60;99.90;;;;;;5073196;28;20446;-67
2023/08/08 07:42:03;;;;;;;7.43;1.23;;;17.60;99.90;;;;;;5051274;28;254516;-68
2023/08/08 07:44:31;;;;;;;8.25;1.40;;;17.70;99.90;;;;;;5072115;28;20048;-68
2023/08/08 07:46:57;;;;;;;8.90;1.10;;;17.90;99.90;;;;;;5049757;28;264700;-67
2023/08/08 07:49:23;;;;;;;8.23;1.30;;;17.90;99.90;;;;;;5055988;28;20521;-67
2023/08/08 07:51:50;;;;;;;9.30;1.20;;;17.70;99.90;;;;;;5035187;28;260480;-68
2023/08/08 07:54:16;;;;;;;8.07;1.25;;;17.70;99.90;;;;;;5072126;28;20422;-68
2023/08/08 07:56:42;;;;;;;7.20;1.30;;;17.60;99.90;;;;;;5042719;28;270107;-68
2023/08/08 07:59:09;;;;;;;8.40;1.20;;;17.50;99.90;;;;;;5075550;28;20060;-69
2023/08/08 08:01:36;;;;;;;10.32;1.30;;;17.40;99.90;;;;;;5040018;28;255778;-68
2023/08/08 08:04:02;;;;;;;11.43;1.42;;;17.50;99.90;;;;;;5080306;28;20052;-68
2023/08/08 08:06:28;;;;;;;7.22;1.50;;;17.60;99.90;;;;;;5067458;28;20056;-67
2023/08/08 08:08:54;;;;;;;7.05;1.13;;;17.60;99.90;;;;;;5062648;28;274339;-69
2023/08/08 08:11:21;;;;;;;11.50;1.40;;;17.60;99.90;;;;;;5070741;28;20574;-69
2023/08/08 08:13:47;;;;;;;11.23;1.30;;;17.90;99.90;;;;;;5055596;28;212806;-69
2023/08/08 08:16:13;;;;;;;7.28;1.02;;;18.10;99.90;;;;;;5068458;28;21216;-68
2023/08/08 08:18:39;;;;;;;8.57;1.30;;;17.90;99.90;;;;;;5063103;28;275608;-69
2023/08/08 08:21:05;;;;;;;10.20;1.40;;;17.80;99.90;;;;;;5069714;28;20075;-69
2023/08/08 08:23:32;;;;;;;10.73;1.52;;;18.00;99.90;;;;;;5061836;28;269132;-68
2023/08/08 08:25:58;;;;;;;13.40;1.50;;;18.10;99.90;;;;;;5071870;28;20052;-68
2023/08/08 08:28:26;;;;;;;8.23;1.15;;;18.20;99.90;;;;;;5056438;28;275467;-68
2023/08/08 08:30:52;;;;;;;11.60;1.60;;;18.20;99.90;;;;;;5067295;28;20059;-69
2023/08/08 08:33:18;;;;;;;8.35;1.35;;;18.30;99.90;;;;;;5066308;28;265586;-69
2023/08/08 08:35:45;;;;;;;11.68;1.50;;;18.10;99.90;;;;;;5067855;28;20045;-68
2023/08/08 08:38:11;;;;;;;9.93;1.40;;;18.20;99.90;;;;;;5061470;28;258383;-69
2023/08/08 08:40:41;;;;;;;9.25;1.38;;;18.10;99.90;;;;;;5070838;28;20052;-69
2023/08/08 08:43:09;;;;;;;10.07;1.60;;;17.80;99.90;;;;;;5048927;28;199966;-68
2023/08/08 08:45:41;;;;;;;8.63;1.40;;;17.50;99.90;;;;;;5074045;28;20624;-69
2023/08/08 08:48:12;;;;;;;7.78;1.30;;;17.30;99.90;;;;;;5053707;28;278270;-69
2023/08/08 08:50:39;;;;;;;8.38;1.40;;;16.90;99.90;;;;;;5067864;28;20053;-69
2023/08/08 08:53:06;;;;;;;9.80;1.63;;;16.70;99.90;;;;;;5034752;28;258579;-70
2023/08/08 08:55:32;;;;;;;11.18;1.60;;;16.50;99.90;;;;;;5060018;28;20033;-70
2023/08/08 08:57:59;;;;;;;11.18;1.85;;;16.40;99.90;;;;;;5052483;28;276271;-70
2023/08/08 09:00:25;;;;;;;9.30;1.58;;;16.30;99.90;;;;;;5063169;28;20052;-71
2023/08/08 09:02:54;;;;;;;7.80;1.50;;;16.30;99.90;;;;;;5065732;28;141897;-69
2023/08/08 09:05:21;;;;;;;8.52;1.48;;;16.40;99.90;;;;;;5074667;28;20056;-68
2023/08/08 09:07:48;;;;;;;9.88;1.60;;;16.40;99.90;;;;;;5059277;28;258700;-69
2023/08/08 09:10:16;;;;;;;10.57;1.63;;;16.90;99.90;;;;;;5073666;28;20044;-70
2023/08/08 09:12:42;;;;;;;11.80;1.65;;;17.20;99.90;;;;;;5057432;28;32655;-69
2023/08/08 09:15:10;;;;;;;8.05;1.20;;;17.10;99.90;;;;;;5066966;28;20059;-68
2023/08/08 09:17:36;;;;;;;12.02;1.65;;;16.90;99.90;;;;;;5050529;28;257741;-69
2023/08/08 09:20:03;;;;;;;9.02;1.60;;;16.60;99.90;;;;;;5060900;28;20059;-69
2023/08/08 09:22:30;;;;;;;9.55;1.70;;;16.60;99.90;;;;;;5055441;28;260336;-68
2023/08/08 09:24:56;;;;;;;9.77;1.73;;;16.50;99.90;;;;;;5076717;28;20582;-69
2023/08/08 09:27:22;;;;;;;10.10;1.58;;;16.30;99.90;;;;;;5052969;28;275058;-71
2023/08/08 09:29:49;;;;;;;9.48;1.40;;;16.70;99.90;;;;;;5058431;28;20048;-69
2023/08/08 09:32:17;;;;;;;8.15;1.33;;;17.70;99.90;;;;;;5050257;28;252948;-69
2023/08/08 09:34:44;;;;;;;8.20;1.50;;;18.70;99.90;;;;;;5079582;28;20045;-70
2023/08/08 09:37:10;;;;;;;8.40;1.35;;;19.10;99.90;;;;;;5049593;28;273464;-69
2023/08/08 09:39:36;;;;;;;8.68;1.35;;;19.30;99.90;;;;;;5075885;28;20045;-69
2023/08/08 09:42:06;;;;;;;9.15;1.27;;;19.30;99.90;;;;;;5055605;28;265275;-70
2023/08/08 09:44:34;;;;;;;10.23;1.38;;;18.70;99.90;;;;;;5081807;28;20059;-70
2023/08/08 09:47:01;;;;;;;7.60;1.40;;;18.40;99.90;;;;;;5059032;28;20043;-71
2023/08/08 09:49:28;;;;;;;8.23;1.23;;;18.10;99.90;;;;;;5080029;28;20075;-70
2023/08/08 09:51:55;;;;;;;8.23;1.30;;;17.80;99.90;;;;;;5041099;28;267179;-68
2023/08/08 09:54:21;;;;;;;8.25;1.50;;;17.70;99.90;;;;;;5064343;28;20052;-70
2023/08/08 09:56:49;;;;;;;7.13;1.23;;;18.00;99.90;;;;;;5051402;28;255884;-68
2023/08/08 09:59:18;;;;;;;11.52;1.65;;;18.70;99.90;;;;;;5051529;28;20052;-68
2023/08/08 10:01:46;;;;;;;7.93;1.50;;;19.70;99.90;;;;;;5048090;28;260282;-69
2023/08/08 10:04:13;;;;;;;6.78;1.10;;;19.80;99.90;;;;;;5065370;28;20075;-68
2023/08/08 10:06:39;;;;;;;8.05;1.20;;;20.10;99.90;;;;;;5046505;28;273241;-68
2023/08/08 10:09:06;;;;;;;12.40;1.60;;;19.60;99.90;;;;;;5069577;28;20052;-68
2023/08/08 10:11:33;;;;;;;6.65;1.20;;;19.20;99.90;;;;;;5070114;28;20053;-69
2023/08/08 10:14:03;;;;;;;7.93;1.45;;;18.70;99.90;;;;;;5054158;28;213901;-68
2023/08/08 10:16:33;;;;;;;9.15;1.60;;;18.30;99.90;;;;;;5062148;28;20049;-69
2023/08/08 10:19:02;;;;;;;8.25;1.45;;;19.30;99.90;;;;;;5052325;28;20045;-69
2023/08/08 10:21:33;;;;;;;8.18;1.55;;;19.90;99.90;;;;;;5068496;28;20075;-69
2023/08/08 10:24:07;;;;;;;8.02;1.40;;;19.80;99.90;;;;;;5052551;28;20511;-69
2023/08/08 10:26:34;;;;;;;7.20;1.63;;;19.60;99.90;;;;;;5069119;28;20434;-67
2023/08/08 10:29:01;;;;;;;10.32;1.80;;;19.10;99.90;;;;;;5054353;28;20052;-67
2023/08/08 10:31:33;;;;;;;9.80;1.67;;;20.20;99.90;;;;;;5069374;28;20056;-67
2023/08/08 10:34:04;;;;;;;7.88;1.40;;;20.70;99.90;;;;;;5062809;28;257334;-67
2023/08/08 10:36:44;;;;;;;12.05;1.40;;;20.10;99.90;;;;;;5056848;28;20041;-68
2023/08/08 10:39:15;;;;;;;8.10;1.50;;;19.90;99.90;;;;;;5055655;28;20486;-67
2023/08/08 10:41:50;;;;;;;6.80;1.25;;;20.30;99.90;;;;;;5051207;28;274547;-69
2023/08/08 10:44:25;;;;;;;8.13;1.40;;;20.40;99.10;;;;;;5058438;28;20139;-69
2023/08/08 10:46:53;;;;;;;7.37;1.40;;;20.60;99.20;;;;;;5042827;28;266337;-69
2023/08/08 10:49:19;;;;;;;7.60;1.58;;;20.90;99.70;;;;;;5079050;28;20056;-68
2023/08/08 10:51:47;;;;;;;10.40;1.65;;;21.50;98.40;;;;;;5036441;28;271952;-68
2023/08/08 10:54:18;;;;;;;9.73;1.67;;;20.70;99.40;;;;;;5071914;28;20064;-67
2023/08/08 10:56:52;;;;;;;8.00;1.58;;;20.30;99.90;;;;;;5050593;28;263958;-67
2023/08/08 10:59:29;;;;;;;9.50;1.50;;;19.80;99.80;;;;;;5062705;28;20052;-68
2023/08/08 11:01:56;;;;;;;8.40;1.30;;;19.40;99.90;;;;;;5040728;28;272837;-68
2023/08/08 11:04:24;;;;;;;12.35;1.85;;;18.60;99.90;;;;;;5060946;28;20053;-67
2023/08/08 11:06:52;;;;;;;7.57;1.42;;;18.40;99.90;;;;;;5048919;28;274627;-67
2023/08/08 11:09:18;;;;;;;9.50;1.65;;;18.20;99.90;;;;;;5058668;28;20404;-68
2023/08/08 11:11:45;;;;;;;9.93;1.63;;;18.00;99.90;;;;;;5046467;28;264057;-68
2023/08/08 11:14:14;;;;;;;9.35;1.48;;;18.30;99.90;;;;;;5080223;28;20048;-68
2023/08/08 11:16:41;;;;;;;8.32;1.50;;;18.40;99.90;;;;;;5049639;28;276406;-68
2023/08/08 11:19:08;;;;;;;8.07;1.50;;;19.20;99.90;;;;;;5080503;28;20071;-69
2023/08/08 11:21:42;;;;;;;9.07;1.60;;;19.80;99.90;;;;;;5052199;28;260551;-67
2023/08/08 11:24:09;;;;;;;7.15;1.27;;;20.00;99.70;;;;;;5080075;28;20045;-68
2023/08/08 11:26:36;;;;;;;9.88;1.80;;;20.00;99.70;;;;;;5054609;28;250206;-68
2023/08/08 11:29:05;;;;;;;8.95;1.52;;;20.40;99.80;;;;;;5069677;28;20068;-67
2023/08/08 11:31:33;;;;;;;8.20;1.40;;;20.60;98.50;;;;;;5068264;28;20061;-67
2023/08/08 11:33:59;;;;;;;8.55;1.40;;;19.80;99.20;;;;;;5056260;28;20059;-68
2023/08/08 11:36:34;;;;;;;6.13;1.10;;;19.30;98.90;;;;;;5061558;28;20048;-67
2023/08/08 11:39:07;;;;;;;10.88;1.55;;;19.30;99.20;;;;;;5057656;28;20521;-68
2023/08/08 11:41:35;;;;;;;6.93;1.40;;;19.70;98.90;;;;;;5062096;28;20044;-68
2023/08/08 11:44:07;;;;;;;5.60;1.20;;;20.20;98.60;;;;;;5054505;28;20254;-68
2023/08/08 11:46:33;;;;;;;8.93;1.38;;;20.00;98.80;;;;;;5062134;28;20487;-68
2023/08/08 11:49:06;;;;;;;8.60;1.23;;;19.50;98.50;;;;;;5052049;28;256133;-67
2023/08/08 11:51:34;;;;;;;10.52;1.63;;;19.20;98.70;;;;;;5068110;28;20056;-66
2023/08/08 11:54:02;;;;;;;9.45;1.20;;;19.70;98.50;;;;;;5031558;28;50836;-68
2023/08/08 11:56:28;;;;;;;7.63;1.25;;;19.70;98.50;;;;;;5070385;28;20052;-67
2023/08/08 11:58:55;;;;;;;7.18;1.05;;;19.60;98.50;;;;;;5037146;28;248563;-67
2023/08/08 12:01:26;;;;;;;10.02;1.20;;;19.90;98.10;;;;;;5049893;28;20426;-68
2023/08/08 12:03:53;;;;;;;8.98;1.35;;;19.40;97.80;;;;;;5059878;28;253072;-67
2023/08/08 12:06:20;;;;;;;8.02;1.30;;;19.10;98.40;;;;;;5068128;28;20410;-68
2023/08/08 12:08:47;;;;;;;8.40;1.38;;;19.00;97.40;;;;;;5059251;28;254715;-69
2023/08/08 12:11:15;;;;;;;9.85;1.60;;;19.10;98.40;;;;;;5066607;28;20045;-68
2023/08/08 12:13:42;;;;;;;8.38;1.38;;;18.90;98.70;;;;;;5063593;28;266839;-68
2023/08/08 12:16:10;;;;;;;8.45;1.40;;;18.90;99.30;;;;;;5068335;28;20056;-69
2023/08/08 12:18:37;;;;;;;9.82;1.50;;;19.80;99.00;;;;;;5054882;28;274690;-68
2023/08/08 12:21:08;;;;;;;6.95;1.30;;;20.40;98.20;;;;;;5057324;28;20056;-68
2023/08/08 12:23:35;;;;;;;10.75;1.42;;;21.00;97.30;;;;;;5061108;28;267975;-69
2023/08/08 12:26:07;;;;;;;9.18;1.10;;;21.20;97.00;;;;;;5076469;28;20056;-69
2023/08/08 12:28:34;;;;;;;6.85;1.10;;;21.40;97.30;;;;;;5050847;28;435321;-68
2023/08/08 12:31:00;;;;;;;8.75;1.27;;;21.80;96.20;;;;;;5068221;28;20052;-70
2023/08/08 12:33:26;;;;;;;6.50;1.10;;;22.10;96.80;;;;;;5053968;28;98613;-69
2023/08/08 12:35:52;;;;;;;6.60;1.15;;;21.70;95.80;;;;;;5061033;28;20060;-69
2023/08/08 12:38:18;;;;;;;6.47;1.15;;;21.50;95.80;;;;;;5051892;28;264777;-68